Time;durP1;ratioP1;P1;durP2;ratioP2;P2;SDS_P1;SDS_P2;PMS_P1;PMS_P2;Temp;Humidity;BMP_temperature;BMP_pressure;BME280_temperature;BME280_humidity;BME280_pressure;Samples;Min_cycle;Max_cycle;Signal;HPM_P1;HPM_P2
2023/06/19 00:02:04;;;;;;;9.52;7.13;;;;;;;20.76;66.17;100799.81;5055658;28;20036;-81
2023/06/19 00:04:29;;;;;;;9.38;7.13;;;;;;;20.72;66.46;100805.53;5055735;28;20021;-83
2023/06/19 00:06:55;;;;;;;9.70;6.93;;;;;;;20.66;66.68;100790.47;5055539;28;20048;-77
2023/06/19 00:09:20;;;;;;;9.93;7.40;;;;;;;20.63;66.95;100794.19;5055760;28;20078;-78
2023/06/19 00:11:45;;;;;;;9.32;7.25;;;;;;;20.66;66.92;100811.44;5055739;28;20021;-81
2023/06/19 00:14:11;;;;;;;13.45;7.38;;;;;;;20.53;66.68;100793.53;5055590;28;20036;-80
2023/06/19 00:16:36;;;;;;;8.63;7.38;;;;;;;20.55;66.91;100813.41;5055339;28;20032;-83
2023/06/19 00:19:03;;;;;;;9.95;7.20;;;;;;;20.41;67.90;100811.38;5055451;28;20032;-77
2023/06/19 00:21:28;;;;;;;9.65;6.88;;;;;;;20.38;67.65;100813.50;5055638;28;20025;-78
2023/06/19 00:23:54;;;;;;;9.80;7.25;;;;;;;20.34;68.54;100818.22;5055597;28;20032;-78
2023/06/19 00:26:22;;;;;;;9.23;6.93;;;;;;;20.38;68.23;100826.59;5055368;28;20033;-77
2023/06/19 00:28:51;;;;;;;9.52;7.20;;;;;;;20.32;68.50;100825.44;5055187;28;20028;-78
2023/06/19 00:31:16;;;;;;;9.20;7.50;;;;;;;20.24;68.54;100822.78;5055215;28;20132;-77
2023/06/19 00:33:43;;;;;;;9.52;7.53;;;;;;;20.09;68.41;100812.09;5055095;28;20052;-77
2023/06/19 00:36:12;;;;;;;9.90;7.15;;;;;;;19.98;68.89;100820.25;5055009;28;20025;-78
2023/06/19 00:38:39;;;;;;;9.23;6.78;;;;;;;20.04;69.45;100840.56;5055064;28;20115;-76
2023/06/19 00:41:05;;;;;;;8.63;6.97;;;;;;;20.02;69.58;100861.72;5054985;28;20025;-78
2023/06/19 00:43:30;;;;;;;10.02;6.97;;;;;;;19.93;70.37;100854.78;5052880;28;20041;-78
2023/06/19 00:45:57;;;;;;;10.18;7.00;;;;;;;19.84;70.82;100852.28;5053705;28;20029;-75
2023/06/19 00:48:23;;;;;;;9.23;7.38;;;;;;;19.77;70.97;100859.97;5053385;28;20029;-77
2023/06/19 00:50:50;;;;;;;9.60;7.15;;;;;;;19.41;71.38;100806.81;5054849;28;20427;-77
2023/06/19 00:53:15;;;;;;;9.70;6.72;;;;;;;19.66;71.40;100847.09;5054635;28;20211;-78
2023/06/19 00:55:40;;;;;;;8.55;6.40;;;;;;;19.60;71.63;100851.19;5052406;28;20041;-78
2023/06/19 00:58:06;;;;;;;9.32;7.07;;;;;;;19.62;71.74;100859.69;5054651;28;20052;-77
2023/06/19 01:00:31;;;;;;;8.50;6.00;;;;;;;19.59;71.96;100859.19;5054536;28;20077;-77
2023/06/19 01:02:57;;;;;;;8.30;5.90;;;;;;;19.49;72.41;100840.94;5054656;28;20040;-77
2023/06/19 01:05:23;;;;;;;9.90;6.57;;;;;;;19.40;72.61;100839.22;5054318;28;20454;-78
2023/06/19 01:07:54;;;;;;;7.53;5.82;;;;;;;19.52;72.68;100868.59;5054401;28;20112;-78
2023/06/19 01:10:24;;;;;;;8.40;5.88;;;;;;;19.50;73.38;100868.75;5053162;28;20432;-78
2023/06/19 01:12:56;;;;;;;7.28;5.35;;;;;;;19.51;73.46;100870.41;5054273;28;20471;-77
2023/06/19 01:15:22;;;;;;;7.72;5.45;;;;;;;19.42;73.74;100855.59;5054584;28;20478;-77
2023/06/19 01:17:49;;;;;;;8.50;5.20;;;;;;;19.38;74.08;100860.34;5054385;28;20036;-77
2023/06/19 01:20:15;;;;;;;8.05;5.43;;;;;;;19.27;74.19;100850.09;5054065;28;20021;-77
2023/06/19 01:22:43;;;;;;;8.35;5.90;;;;;;;19.13;74.58;100843.59;5054169;28;20072;-78
2023/06/19 01:25:09;;;;;;;7.03;5.00;;;;;;;19.27;74.85;100873.69;5054069;28;20021;-78
2023/06/19 01:27:35;;;;;;;9.00;5.65;;;;;;;19.29;75.48;100887.44;5054194;28;20363;-77
2023/06/19 01:30:03;;;;;;;7.63;5.60;;;;;;;19.16;75.97;100879.94;5054006;28;20501;-77
2023/06/19 01:32:53;;;;;;;8.43;6.03;;;;;;;19.05;75.91;100861.03;5053940;28;20025;-82
2023/06/19 01:35:21;;;;;;;8.80;6.47;;;;;;;19.08;76.74;100876.47;5053950;28;20060;-78
2023/06/19 01:37:49;;;;;;;7.95;5.63;;;;;;;19.05;77.11;100885.41;5054154;28;20044;-77
2023/06/19 01:40:15;;;;;;;8.25;6.03;;;;;;;19.03;77.07;100883.91;5054111;28;20032;-78
2023/06/19 01:42:41;;;;;;;7.90;5.40;;;;;;;19.11;77.05;100886.63;5053751;28;20394;-78
2023/06/19 01:45:08;;;;;;;8.90;5.63;;;;;;;19.19;77.53;100897.97;5053734;28;20044;-78
2023/06/19 01:47:33;;;;;;;7.25;4.50;;;;;;;19.23;77.45;100895.06;5053566;28;20079;-77
2023/06/19 01:49:59;;;;;;;6.95;5.03;;;;;;;19.24;77.35;100894.06;5053733;28;20052;-83
2023/06/19 01:52:25;;;;;;;8.45;5.30;;;;;;;19.23;77.67;100897.69;5053907;28;20108;-78
2023/06/19 01:54:51;;;;;;;7.72;5.10;;;;;;;19.18;78.16;100911.22;5053489;28;20025;-78
2023/06/19 01:57:16;;;;;;;8.23;5.38;;;;;;;19.11;77.94;100902.31;5053449;28;20037;-77
2023/06/19 01:59:42;;;;;;;7.18;4.97;;;;;;;19.06;78.47;100912.41;5053121;28;20025;-77
2023/06/19 02:02:07;;;;;;;7.55;5.20;;;;;;;18.77;79.41;100871.56;5053335;28;20032;-76
2023/06/19 02:04:33;;;;;;;7.13;4.85;;;;;;;18.93;79.78;100912.78;5053303;28;20028;-77
2023/06/19 02:06:59;;;;;;;7.28;4.93;;;;;;;18.65;80.08;100882.41;5052201;28;20497;-77
2023/06/19 02:09:24;;;;;;;7.30;4.90;;;;;;;18.68;80.83;100895.19;5053406;28;20053;-77
2023/06/19 02:11:49;;;;;;;7.40;5.20;;;;;;;18.77;81.19;100910.81;5053334;28;20021;-78
2023/06/19 02:14:15;;;;;;;7.93;4.55;;;;;;;18.76;81.34;100905.72;5053202;28;20039;-78
2023/06/19 02:16:43;;;;;;;7.93;4.53;;;;;;;18.77;82.48;100913.44;5052986;28;20036;-78
2023/06/19 02:19:11;;;;;;;7.10;4.57;;;;;;;18.77;82.91;100923.06;5052996;28;20067;-77
2023/06/19 02:21:37;;;;;;;5.65;3.95;;;;;;;18.73;82.57;100908.66;5053167;28;20171;-77
2023/06/19 02:24:04;;;;;;;7.38;4.20;;;;;;;18.91;82.62;100922.59;5053090;28;20059;-79
2023/06/19 02:26:29;;;;;;;6.20;3.72;;;;;;;18.94;83.02;100918.84;5052849;28;20034;-77
2023/06/19 02:28:56;;;;;;;6.60;3.58;;;;;;;18.80;83.13;100891.41;5052808;28;20378;-79
2023/06/19 02:31:22;;;;;;;6.00;3.80;;;;;;;18.94;83.53;100927.50;5052761;28;20078;-79
2023/06/19 02:33:48;;;;;;;5.20;3.38;;;;;;;18.99;83.73;100932.31;5052824;28;20111;-77
2023/06/19 02:36:13;;;;;;;6.90;3.08;;;;;;;19.00;83.46;100932.16;5052939;28;20043;-77
2023/06/19 02:38:38;;;;;;;6.15;3.50;;;;;;;18.96;84.42;100927.34;5051071;28;20147;-78
2023/06/19 02:41:04;;;;;;;5.78;3.25;;;;;;;18.88;84.74;100923.72;5051071;28;20379;-76
2023/06/19 02:43:30;;;;;;;5.30;3.17;;;;;;;18.59;85.30;100895.09;5052521;28;20032;-78
2023/06/19 02:45:55;;;;;;;6.25;3.25;;;;;;;18.52;86.23;100895.81;5052909;28;20086;-77
2023/06/19 02:48:23;;;;;;;4.75;2.92;;;;;;;18.59;86.42;100928.25;5052722;28;20029;-79
2023/06/19 02:50:48;;;;;;;6.53;3.10;;;;;;;18.23;87.01;100875.03;5052529;28;20013;-78
2023/06/19 02:53:14;;;;;;;6.07;3.50;;;;;;;18.42;87.36;100914.16;5052811;28;20467;-77
2023/06/19 02:55:39;;;;;;;5.45;2.95;;;;;;;18.44;87.86;100924.47;5052607;28;20025;-79
2023/06/19 02:58:05;;;;;;;6.38;3.55;;;;;;;18.12;88.01;100889.13;5052337;28;20099;-77
2023/06/19 03:00:30;;;;;;;7.07;3.10;;;;;;;18.26;89.23;100934.84;5052212;28;20041;-81
2023/06/19 03:02:55;;;;;;;6.32;3.40;;;;;;;18.23;90.24;100937.78;5052502;28;20040;-78
2023/06/19 03:05:21;;;;;;;5.43;3.25;;;;;;;18.11;91.17;100925.84;5052241;28;20028;-81
2023/06/19 03:07:46;;;;;;;4.95;3.10;;;;;;;18.15;91.62;100935.88;5052459;28;20071;-78
2023/06/19 03:10:11;;;;;;;5.88;3.05;;;;;;;17.92;92.12;100905.84;5052361;28;20017;-77
2023/06/19 03:12:37;;;;;;;4.97;3.10;;;;;;;17.92;92.34;100911.88;5052133;28;20021;-77
2023/06/19 03:15:02;;;;;;;5.03;3.10;;;;;;;18.01;92.68;100934.53;5052260;28;20031;-78
2023/06/19 03:17:28;;;;;;;6.32;3.40;;;;;;;18.02;93.44;100945.81;5051995;28;20094;-81
2023/06/19 03:19:53;;;;;;;5.75;3.50;;;;;;;17.77;93.67;100916.72;5052300;28;20056;-77
2023/06/19 03:22:20;;;;;;;6.80;3.58;;;;;;;17.95;94.01;100956.00;5052127;28;20107;-77
2023/06/19 03:24:45;;;;;;;5.05;3.30;;;;;;;17.70;94.00;100912.22;5052221;28;20025;-77
2023/06/19 03:27:10;;;;;;;5.13;3.08;;;;;;;17.86;94.99;100954.22;5051969;28;20078;-77
2023/06/19 03:29:36;;;;;;;5.22;3.25;;;;;;;17.80;95.58;100943.50;5052108;28;20017;-78
2023/06/19 03:32:01;;;;;;;6.30;3.55;;;;;;;17.81;96.02;100950.41;5052273;28;20436;-76
2023/06/19 03:34:26;;;;;;;5.22;3.20;;;;;;;17.83;96.16;100964.97;5052387;28;20102;-76
2023/06/19 03:36:52;;;;;;;5.35;3.47;;;;;;;17.72;96.40;100944.22;5051934;28;20040;-76
2023/06/19 03:39:17;;;;;;;5.38;3.40;;;;;;;17.85;96.95;100973.50;5052159;28;20033;-77
2023/06/19 03:41:42;;;;;;;8.02;3.75;;;;;;;17.93;97.10;100975.41;5052205;28;20074;-78
2023/06/19 03:44:08;;;;;;;6.82;3.92;;;;;;;17.98;96.54;100973.19;5051984;28;20025;-76
2023/06/19 03:46:33;;;;;;;6.53;3.90;;;;;;;18.01;96.02;100952.00;5051809;28;20378;-76
2023/06/19 03:48:58;;;;;;;8.23;3.53;;;;;;;18.21;95.23;100965.84;5052068;28;20028;-78
2023/06/19 03:51:24;;;;;;;7.35;3.45;;;;;;;18.32;95.47;100987.41;5052006;28;20445;-78
2023/06/19 03:53:49;;;;;;;5.57;3.30;;;;;;;18.39;95.03;100994.69;5051830;28;20101;-80
2023/06/19 03:56:15;;;;;;;5.25;3.45;;;;;;;18.41;94.63;100996.19;5051933;28;20025;-76
2023/06/19 03:58:40;;;;;;;5.32;3.60;;;;;;;18.41;93.86;100980.50;5051900;28;20584;-77
2023/06/19 04:01:05;;;;;;;5.65;3.42;;;;;;;18.44;93.87;100984.59;5051855;28;20124;-80
2023/06/19 04:03:31;;;;;;;6.47;3.70;;;;;;;18.49;94.05;100987.63;5052095;28;20121;-76
2023/06/19 04:05:56;;;;;;;7.22;3.83;;;;;;;18.31;93.75;100957.00;5051829;28;20075;-78
2023/06/19 04:08:21;;;;;;;6.10;4.00;;;;;;;18.26;93.92;100953.97;5051527;28;20083;-76
2023/06/19 04:10:47;;;;;;;7.85;4.18;;;;;;;18.52;94.24;100995.19;5051739;28;20047;-78
2023/06/19 04:13:12;;;;;;;9.85;4.70;;;;;;;18.49;94.04;100991.06;5051781;28;20094;-77
2023/06/19 04:15:38;;;;;;;6.80;4.28;;;;;;;18.54;94.51;101001.09;5051729;28;20104;-76
2023/06/19 04:18:03;;;;;;;7.15;4.15;;;;;;;18.58;94.55;101018.97;5051825;28;20021;-78
2023/06/19 04:20:29;;;;;;;6.45;3.92;;;;;;;18.64;94.62;101022.78;5051893;28;20108;-77
2023/06/19 04:22:54;;;;;;;5.93;3.80;;;;;;;18.65;94.56;101023.66;5051805;28;20045;-77
2023/06/19 04:25:19;;;;;;;6.97;4.13;;;;;;;18.55;94.53;101008.78;5051454;28;20470;-77
2023/06/19 04:27:45;;;;;;;7.47;4.75;;;;;;;18.62;95.23;101022.94;5051512;28;20029;-77
2023/06/19 04:30:11;;;;;;;6.95;4.30;;;;;;;18.59;95.35;101028.47;5053937;28;20102;-77
2023/06/19 04:32:40;;;;;;;7.43;4.88;;;;;;;18.60;95.65;101027.50;5055215;28;20056;-77
2023/06/19 04:35:06;;;;;;;7.53;4.80;;;;;;;18.57;96.39;101032.16;5055139;28;20021;-77
2023/06/19 04:37:32;;;;;;;9.15;4.80;;;;;;;18.61;96.85;101038.78;5055072;28;20040;-77
2023/06/19 04:39:57;;;;;;;6.55;4.47;;;;;;;18.42;97.23;101008.28;5055081;28;20025;-77
2023/06/19 04:42:23;;;;;;;7.50;4.50;;;;;;;18.55;97.58;101040.16;5054960;28;20025;-76
2023/06/19 04:44:48;;;;;;;8.23;4.80;;;;;;;18.41;97.58;101021.50;5054922;28;20132;-77
2023/06/19 04:47:16;;;;;;;9.70;4.68;;;;;;;18.52;97.90;101040.47;5054768;28;20039;-77
2023/06/19 04:49:41;;;;;;;9.68;5.35;;;;;;;18.59;97.79;101041.56;5054928;28;20538;-77
2023/06/19 04:52:07;;;;;;;6.63;4.70;;;;;;;18.63;97.60;101052.53;5054734;28;20056;-78
2023/06/19 04:54:35;;;;;;;7.43;4.97;;;;;;;18.59;98.13;101044.16;5054601;28;20048;-76
2023/06/19 04:57:01;;;;;;;7.47;5.30;;;;;;;18.66;97.83;101047.03;5054740;28;20550;-77
2023/06/19 04:59:26;;;;;;;10.30;4.90;;;;;;;18.45;97.91;101009.78;5054733;28;20028;-76
2023/06/19 05:01:53;;;;;;;7.72;5.60;;;;;;;18.57;97.74;101033.00;5054462;28;20032;-77
2023/06/19 05:04:20;;;;;;;8.98;5.28;;;;;;;18.72;98.17;101048.28;5054667;28;20040;-80
2023/06/19 05:06:45;;;;;;;8.88;5.50;;;;;;;18.75;97.78;101043.56;5054795;28;20032;-78
2023/06/19 05:09:11;;;;;;;8.30;5.50;;;;;;;18.76;97.79;101042.59;5054416;28;20033;-77
2023/06/19 05:11:36;;;;;;;9.93;5.63;;;;;;;18.62;98.22;101027.34;5054474;28;20032;-81
2023/06/19 05:14:02;;;;;;;8.20;6.45;;;;;;;18.78;98.19;101043.31;5054483;28;20044;-77
2023/06/19 05:16:28;;;;;;;8.65;5.78;;;;;;;18.74;98.36;101035.88;5054255;28;20026;-79
2023/06/19 05:18:53;;;;;;;8.93;6.00;;;;;;;18.71;98.52;101029.13;5053128;28;20404;-77
2023/06/19 05:21:18;;;;;;;8.05;5.65;;;;;;;18.87;97.86;101038.97;5054456;28;20035;-80
2023/06/19 05:23:44;;;;;;;7.38;5.20;;;;;;;19.16;93.36;101060.56;5054297;28;20033;-80
2023/06/19 05:26:09;;;;;;;9.35;5.50;;;;;;;19.27;89.41;101053.47;5052095;28;20442;-77
2023/06/19 05:28:34;;;;;;;8.82;5.65;;;;;;;19.41;90.44;101061.69;5054083;28;20025;-82
2023/06/19 05:31:00;;;;;;;9.05;6.43;;;;;;;19.35;91.84;101045.72;5053925;28;20024;-78
2023/06/19 05:33:25;;;;;;;9.25;6.88;;;;;;;19.33;93.97;101060.75;5053049;28;20099;-78
2023/06/19 05:35:52;;;;;;;7.78;5.35;;;;;;;19.44;90.81;101066.59;5053988;28;20036;-79
2023/06/19 05:38:19;;;;;;;8.35;6.15;;;;;;;19.32;93.37;101056.50;5052852;28;20021;-81
2023/06/19 05:40:44;;;;;;;8.75;5.85;;;;;;;19.37;90.72;101051.63;5053657;28;20033;-81
2023/06/19 05:43:09;;;;;;;8.13;6.00;;;;;;;19.63;90.73;101076.16;5053841;28;20036;-78
2023/06/19 05:45:35;;;;;;;8.48;6.30;;;;;;;19.56;91.83;101082.13;5053798;28;20025;-78
2023/06/19 05:48:00;;;;;;;7.65;5.85;;;;;;;19.72;90.30;101072.66;5053537;28;20064;-79
2023/06/19 05:50:26;;;;;;;9.32;6.10;;;;;;;19.87;89.99;101077.38;5053844;28;20049;-81
2023/06/19 05:52:51;;;;;;;8.40;5.65;;;;;;;20.44;85.03;101072.56;5053670;28;20029;-79
2023/06/19 05:55:16;;;;;;;9.10;7.25;;;;;;;20.66;86.07;101079.94;5053682;28;20499;-81
2023/06/19 05:57:42;;;;;;;12.98;7.07;;;;;;;20.51;83.83;101057.84;5053512;28;20021;-80
2023/06/19 06:00:13;;;;;;;8.50;6.03;;;;;;;20.84;82.19;101079.81;5053533;28;20052;-78
2023/06/19 06:02:39;;;;;;;9.93;5.53;;;;;;;21.17;79.67;101086.06;5053490;28;20021;-79
2023/06/19 06:05:04;;;;;;;8.20;5.90;;;;;;;22.22;77.18;101076.69;5053341;28;20036;-79
2023/06/19 06:07:30;;;;;;;6.90;5.22;;;;;;;23.46;70.66;101067.19;5053517;28;20028;-81
2023/06/19 06:09:55;;;;;;;8.15;5.57;;;;;;;24.44;65.42;101084.06;5053423;28;20028;-80
2023/06/19 06:12:21;;;;;;;6.47;5.25;;;;;;;24.95;61.36;101084.97;5053186;28;20025;-79
2023/06/19 06:14:46;;;;;;;6.80;5.38;;;;;;;24.21;62.46;101098.13;5053017;28;20429;-80
2023/06/19 06:17:11;;;;;;;7.30;5.47;;;;;;;23.41;64.95;101095.09;5053184;28;20444;-80
2023/06/19 06:19:37;;;;;;;7.43;5.45;;;;;;;23.09;66.86;101101.31;5053161;28;20029;-79
2023/06/19 06:22:02;;;;;;;8.70;6.45;;;;;;;22.90;66.80;101078.84;5053205;28;20104;-80
2023/06/19 06:24:28;;;;;;;7.32;5.82;;;;;;;24.01;63.95;101112.81;5053176;28;20075;-77
2023/06/19 06:26:53;;;;;;;8.75;6.32;;;;;;;24.75;60.41;101119.03;5052890;28;20039;-77
2023/06/19 06:29:19;;;;;;;8.40;6.05;;;;;;;25.06;59.33;101129.44;5052591;28;20029;-77
2023/06/19 06:31:46;;;;;;;7.90;6.45;;;;;;;25.12;57.92;101118.16;5052736;28;20028;-78
2023/06/19 06:34:12;;;;;;;8.38;6.65;;;;;;;25.19;57.46;101097.09;5052893;28;20389;-78
2023/06/19 06:36:38;;;;;;;8.85;6.60;;;;;;;25.79;55.79;101121.56;5058649;23;20131;-78
2023/06/19 06:39:03;;;;;;;9.27;6.68;;;;;;;25.87;54.41;101111.66;5050710;28;20076;-78
2023/06/19 06:41:29;;;;;;;9.23;6.70;;;;;;;26.22;52.87;101101.13;5052769;28;20024;-78
2023/06/19 06:43:59;;;;;;;8.32;7.13;;;;;;;26.46;52.01;101127.22;5052517;28;20029;-78
2023/06/19 06:46:25;;;;;;;8.95;7.60;;;;;;;26.07;52.88;101134.84;5052282;28;20427;-78
2023/06/19 06:48:50;;;;;;;9.02;7.13;;;;;;;25.98;52.87;101132.31;5052626;28;20068;-77
2023/06/19 06:51:16;;;;;;;8.57;7.70;;;;;;;25.66;54.08;101146.84;5052283;28;20112;-77
2023/06/19 06:53:41;;;;;;;8.80;6.97;;;;;;;25.42;55.10;101128.66;5050579;28;20100;-85
2023/06/19 06:56:07;;;;;;;9.38;7.05;;;;;;;25.50;54.59;101133.03;5053066;28;20029;-77
2023/06/19 06:58:32;;;;;;;9.77;6.22;;;;;;;25.31;55.55;101147.66;5052448;28;20033;-79
2023/06/19 07:00:58;;;;;;;9.15;8.25;;;;;;;24.77;56.99;101159.31;5051404;28;20033;-79
2023/06/19 07:03:23;;;;;;;11.15;8.48;;;;;;;24.34;57.55;101152.97;5052454;28;20095;-79
2023/06/19 07:05:52;;;;;;;10.18;8.32;;;;;;;23.78;58.75;101127.81;5052213;28;20029;-79
2023/06/19 07:08:17;;;;;;;9.98;7.10;;;;;;;24.24;58.80;101142.63;5052335;28;20033;-77
2023/06/19 07:10:43;;;;;;;8.70;7.32;;;;;;;24.72;55.64;101050.75;5052283;28;20025;-79
2023/06/19 07:13:11;;;;;;;12.10;8.10;;;;;;;26.10;53.59;101145.03;5029818;28;20487;-77
2023/06/19 07:15:36;;;;;;;10.90;8.95;;;;;;;26.33;51.48;101139.50;5030429;28;20037;-77
2023/06/19 07:18:02;;;;;;;9.15;7.65;;;;;;;27.05;50.05;101141.88;5030193;28;20517;-79
2023/06/19 07:20:27;;;;;;;8.98;7.30;;;;;;;27.92;47.55;101170.28;5030596;28;20034;-81
2023/06/19 07:22:53;;;;;;;8.40;7.30;;;;;;;28.33;46.49;101172.81;5030234;28;20030;-78
2023/06/19 07:25:19;;;;;;;8.63;7.03;;;;;;;28.03;46.51;101150.31;5029437;28;20021;-80
2023/06/19 07:27:44;;;;;;;9.18;7.72;;;;;;;28.10;46.32;101143.97;5030014;28;20576;-81
2023/06/19 07:30:10;;;;;;;10.88;7.75;;;;;;;27.89;46.80;101170.69;5030108;28;20479;-79
2023/06/19 07:32:45;;;;;;;9.52;7.60;;;;;;;28.19;47.46;101187.88;5030043;28;20122;-80
2023/06/19 07:35:11;;;;;;;8.43;7.63;;;;;;;28.11;46.40;101184.59;5029998;28;20121;-80
2023/06/19 07:37:36;;;;;;;10.80;8.30;;;;;;;28.17;45.96;101151.94;5030184;28;20045;-82
2023/06/19 07:40:02;;;;;;;9.68;8.68;;;;;;;28.52;45.52;101184.44;5029994;28;20079;-80
2023/06/19 07:42:27;;;;;;;12.80;8.57;;;;;;;27.97;45.96;101189.09;5030177;28;20029;-79
2023/06/19 07:44:53;;;;;;;10.95;9.60;;;;;;;26.92;47.11;101200.06;5047967;28;20468;-82
2023/06/19 07:47:18;;;;;;;10.10;9.00;;;;;;;26.31;49.79;101208.53;5050221;28;20494;-80
2023/06/19 07:49:44;;;;;;;12.50;9.10;;;;;;;25.78;51.82;101210.69;5050456;28;20064;-80
2023/06/19 07:52:10;;;;;;;10.52;8.88;;;;;;;25.55;52.48;101204.66;5052238;28;20437;-80
2023/06/19 07:54:35;;;;;;;9.73;8.48;;;;;;;25.47;52.94;101200.34;5051853;28;20021;-78
2023/06/19 07:57:01;;;;;;;9.45;8.45;;;;;;;25.52;52.33;101192.66;5052252;28;20565;-79
2023/06/19 07:59:26;;;;;;;9.95;9.00;;;;;;;25.31;52.58;101195.25;5052098;28;20033;-78
2023/06/19 08:01:51;;;;;;;10.25;7.95;;;;;;;25.22;53.72;101198.97;5051773;28;20025;-80
2023/06/19 08:04:17;;;;;;;10.25;9.18;;;;;;;25.21;53.79;101178.84;5052954;28;20370;-77
2023/06/19 08:06:42;;;;;;;11.13;9.30;;;;;;;25.22;53.62;101149.56;5055840;28;20093;-80
2023/06/19 08:09:07;;;;;;;10.27;9.00;;;;;;;25.53;52.94;101206.69;5055588;28;20025;-80
2023/06/19 08:11:33;;;;;;;11.43;9.52;;;;;;;25.38;53.41;101196.97;5055585;28;20021;-80
2023/06/19 08:13:59;;;;;;;9.85;8.85;;;;;;;25.37;53.11;101215.66;5055513;28;20036;-82
2023/06/19 08:16:26;;;;;;;12.43;9.77;;;;;;;25.30;52.76;101198.88;5055325;28;20036;-79
2023/06/19 08:18:51;;;;;;;10.70;8.57;;;;;;;25.42;53.56;101203.50;5055318;28;20108;-81
2023/06/19 08:21:16;;;;;;;9.65;8.52;;;;;;;25.40;53.29;101207.34;5055170;28;20176;-79
2023/06/19 08:23:43;;;;;;;11.48;9.38;;;;;;;25.16;53.18;101213.72;5055490;28;20068;-81
2023/06/19 08:26:09;;;;;;;9.50;8.30;;;;;;;25.06;53.85;101213.19;5055111;28;20025;-81
2023/06/19 08:28:34;;;;;;;11.48;8.60;;;;;;;25.08;54.85;101216.50;5055304;28;20086;-80
2023/06/19 08:31:00;;;;;;;10.20;9.07;;;;;;;24.84;53.92;101167.31;5055146;28;20048;-79
2023/06/19 08:33:28;;;;;;;10.10;8.77;;;;;;;25.18;53.99;101209.09;5055547;28;20059;-81
2023/06/19 08:35:54;;;;;;;10.77;9.00;;;;;;;25.12;53.42;101194.78;5055119;28;20049;-83
2023/06/19 08:38:19;;;;;;;10.52;8.95;;;;;;;25.12;54.02;101217.75;5055027;28;20028;-82
2023/06/19 08:40:45;;;;;;;10.68;8.85;;;;;;;25.16;53.62;101219.03;5055172;28;20021;-79
2023/06/19 08:43:11;;;;;;;11.10;8.95;;;;;;;25.06;54.01;101226.41;5055152;28;20032;-84
2023/06/19 08:45:36;;;;;;;11.80;10.52;;;;;;;24.71;54.86;101207.59;5053693;28;20040;-79
2023/06/19 08:48:03;;;;;;;10.82;9.27;;;;;;;24.86;54.35;101234.00;5055661;28;20478;-79
2023/06/19 08:50:32;;;;;;;10.50;8.85;;;;;;;24.91;54.13;101239.59;5055126;28;20021;-82
2023/06/19 08:52:57;;;;;;;11.52;9.10;;;;;;;24.87;54.38;101227.72;5055028;28;20068;-80
2023/06/19 08:55:25;;;;;;;12.30;8.90;;;;;;;25.05;54.04;101240.63;5054941;28;20094;-79
2023/06/19 08:57:52;;;;;;;13.52;9.60;;;;;;;24.94;52.89;101230.47;5054955;28;20096;-80
2023/06/19 09:00:26;;;;;;;11.30;8.30;;;;;;;25.34;53.99;101248.56;5054589;28;20021;-83
2023/06/19 09:02:52;;;;;;;10.05;8.75;;;;;;;25.41;52.48;101224.84;5054565;28;20028;-79
2023/06/19 09:05:19;;;;;;;10.95;9.35;;;;;;;25.49;52.06;101255.66;5054458;28;20052;-78
2023/06/19 09:07:55;;;;;;;11.25;9.52;;;;;;;25.32;52.86;101265.59;5054746;28;20029;-81
2023/06/19 09:10:20;;;;;;;10.23;9.13;;;;;;;25.24;52.42;101249.84;5055115;28;20110;-81
2023/06/19 09:13:02;;;;;;;10.80;9.32;;;;;;;25.43;53.46;101265.16;5055239;28;20100;-81
2023/06/19 09:15:29;;;;;;;14.60;9.93;;;;;;;25.07;52.17;101236.81;5053688;28;20037;-80
2023/06/19 09:18:08;;;;;;;13.75;8.63;;;;;;;25.07;53.40;101235.97;5054266;28;20021;-81
2023/06/19 09:20:43;;;;;;;11.77;8.98;;;;;;;24.95;52.21;101253.25;5053258;28;20021;-77
2023/06/19 09:23:13;;;;;;;12.00;8.02;;;;;;;24.95;52.08;101248.78;5054068;28;20017;-77
2023/06/19 09:25:54;;;;;;;11.68;8.30;;;;;;;25.12;53.03;101265.31;5054170;28;20408;-87
2023/06/19 09:28:24;;;;;;;9.55;8.55;;;;;;;25.11;54.01;101275.09;5053129;28;20146;-79
2023/06/19 09:31:00;;;;;;;12.23;8.73;;;;;;;25.15;53.21;101263.13;5054864;28;20025;-78
2023/06/19 09:33:27;;;;;;;12.02;9.00;;;;;;;24.96;51.65;101237.19;5054600;28;20386;-78
2023/06/19 09:35:55;;;;;;;11.00;8.73;;;;;;;25.18;53.42;101269.91;5053152;28;20501;-78
2023/06/19 09:38:24;;;;;;;12.02;9.00;;;;;;;25.18;53.27;101277.81;5053848;28;20039;-79
2023/06/19 09:40:51;;;;;;;12.07;9.38;;;;;;;24.98;53.60;101258.19;5052699;28;20482;-78
2023/06/19 09:43:25;;;;;;;10.65;9.25;;;;;;;25.03;53.43;101276.97;5053939;28;20029;-80
2023/06/19 09:45:54;;;;;;;12.48;9.80;;;;;;;25.14;53.45;101279.19;5053712;28;20025;-79
2023/06/19 09:48:26;;;;;;;11.68;9.80;;;;;;;25.02;52.50;101259.50;5053587;28;20047;-79
2023/06/19 09:50:57;;;;;;;10.80;9.05;;;;;;;25.19;52.20;101249.56;5052226;28;20037;-83
2023/06/19 09:53:23;;;;;;;;;;;;;;;25.54;52.02;101290.31;5054183;28;20029;-78
2023/06/19 09:55:52;;;;;;;10.93;9.50;;;;;;;25.08;52.06;101240.28;5053719;28;20366;-78
2023/06/19 09:58:20;;;;;;;11.07;9.13;;;;;;;25.38;52.35;101291.34;5053908;28;20467;-80
2023/06/19 10:00:47;;;;;;;10.20;8.70;;;;;;;25.33;52.08;101270.72;5053491;28;20032;-79
2023/06/19 10:03:13;;;;;;;11.27;9.45;;;;;;;25.24;51.36;101274.44;5053579;28;20033;-78
2023/06/19 10:05:40;;;;;;;11.38;9.15;;;;;;;25.27;51.91;101265.31;5053732;28;20028;-88
2023/06/19 10:08:05;;;;;;;12.88;8.70;;;;;;;25.47;51.42;101284.94;5051870;28;20463;-84
2023/06/19 10:10:31;;;;;;;9.45;8.32;;;;;;;25.22;52.04;101250.03;5053843;28;20047;-81
2023/06/19 10:13:15;;;;;;;10.45;8.35;;;;;;;25.39;52.51;101290.31;5053680;28;20398;-76
2023/06/19 10:15:46;;;;;;;9.60;8.40;;;;;;;25.33;52.35;101289.22;5053311;28;20025;-78
2023/06/19 10:18:16;;;;;;;10.77;8.70;;;;;;;25.46;52.39;101292.03;5051698;28;20167;-81
2023/06/19 10:20:43;;;;;;;13.05;10.02;;;;;;;25.46;52.18;101267.41;5053554;28;20045;-84
2023/06/19 10:23:12;;;;;;;12.27;8.95;;;;;;;25.79;51.79;101278.47;5051433;28;20071;-80
2023/06/19 10:25:39;;;;;;;11.75;9.38;;;;;;;25.59;50.60;101246.44;5053192;28;20029;-81
2023/06/19 10:28:16;;;;;;;10.98;9.07;;;;;;;25.78;50.57;101282.13;5052064;28;20500;-80
2023/06/19 10:30:42;;;;;;;10.98;9.27;;;;;;;25.63;51.33;101286.56;5052976;28;20033;-85
2023/06/19 10:33:07;;;;;;;11.27;9.77;;;;;;;25.57;50.41;101292.59;5051107;28;20090;-82
2023/06/19 10:35:40;;;;;;;11.55;9.38;;;;;;;25.80;50.47;101303.09;5052898;28;20061;-79
2023/06/19 10:38:06;;;;;;;11.80;8.98;;;;;;;26.02;49.56;101284.41;5052969;28;20151;-79
2023/06/19 10:40:31;;;;;;;12.57;9.82;;;;;;;25.94;49.76;101270.47;5053057;28;20446;-79
2023/06/19 10:42:57;;;;;;;10.35;8.65;;;;;;;26.26;50.10;101293.03;5052692;28;20116;-80
2023/06/19 10:45:28;;;;;;;11.68;9.02;;;;;;;26.18;48.95;101269.31;5052618;28;20031;-80
2023/06/19 10:47:54;;;;;;;12.18;9.27;;;;;;;26.43;47.38;101296.28;5052686;28;20070;-76
2023/06/19 10:50:20;;;;;;;11.23;8.55;;;;;;;26.31;46.31;101257.03;5051532;28;20108;-78
2023/06/19 10:52:45;;;;;;;10.20;8.57;;;;;;;26.50;47.01;101286.56;5052725;28;20050;-78
2023/06/19 10:55:14;;;;;;;9.30;7.40;;;;;;;26.58;46.23;101284.59;5052869;28;20029;-80
2023/06/19 10:57:44;;;;;;;11.68;7.80;;;;;;;26.55;47.03;101290.28;5052652;28;20059;-78
2023/06/19 11:00:12;;;;;;;9.88;8.43;;;;;;;26.45;47.24;101292.44;5052843;28;20021;-79
2023/06/19 11:02:43;;;;;;;11.02;9.40;;;;;;;26.13;46.77;101261.94;5052828;28;20044;-80
2023/06/19 11:05:12;;;;;;;12.35;9.35;;;;;;;26.16;47.06;101266.88;5052605;28;20083;-79
2023/06/19 11:07:38;;;;;;;9.52;7.18;;;;;;;26.24;46.08;101276.50;5052577;28;20029;-80
2023/06/19 11:10:04;;;;;;;9.02;7.32;;;;;;;26.29;45.49;101297.94;5052718;28;20024;-78
2023/06/19 11:12:31;;;;;;;10.25;8.52;;;;;;;26.33;46.04;101291.25;5052312;28;20479;-80
2023/06/19 11:14:56;;;;;;;11.38;8.20;;;;;;;26.40;46.59;101278.94;5052244;28;20027;-82
2023/06/19 11:17:23;;;;;;;11.90;7.82;;;;;;;26.68;46.52;101286.13;5052370;28;20115;-79
2023/06/19 11:19:49;;;;;;;11.18;9.10;;;;;;;26.75;46.26;101279.88;5052444;28;20108;-88